Etusivu
METAR-TAF:

METAR-TAF

Lentoasemat :

Corvallis, Oregon, Yhdysvallat

Leveyspiiri: 44-30N, Pituuspiiri: 123-17W, korkeus merenpinnasta: 75 m

Tämänhetkinen sää

Tämä raportti tehtiin 6 minuuttia sitten, kello 04.56 UTC
Tuuli 3 kn lännestä/luoteesta
Lämpötila 1°C
Kosteus 86%
Ilmanpaine 1018 hPa
Näkyvyys: 16.1 km
selkeää

METAR: KCVO 220456Z AUTO 29003KT 10SM CLR 01/M01 A3006 RMK AO2 SLP181 T00061006 FZRANO

Aika: 21:02 (05:02 UTC)


TAF: puuttuu

Säähavainnot ja -ennusteet yli 4000 lentoasemalta (METAR- ja TAF-raportit).

Käytössä olevat sääasemat on merkitty karttaan keltaisilla ja punaisilla pisteillä.

Aseta hiiri pisteen päälle nähdäksesi sääaseman nimen.

Klikkaa sitten nähdäksesi säähavainnot ja -ennusteet.

Kartan vaihtaminen: klikkaa mustalla rastilla varustettuja vihreitä pisteitä, niin voit zoomata sisään; viivalla varustettua vihreää pistettä, niin voit zoomata ulos tai vihreitä nuolia, niin pääset viereisille kartoille.


METAR-TAF: